<?xml version="1.0" encoding="UTF-8" standalone="no" ?>
<gpx xmlns="http://www.topografix.com/GPX/1/1" xmlns:xsi="http://www.w3.org/2001/XMLSchema-instance" xsi:schemaLocation="http://www.topografix.com/GPX/1/1 http://www.topografix.com/GPX/1/1/gpx.xsd" version="1.1" creator="VisuGPX - https://www.visugpx.com">
  <metadata>
    <name>Col d\\\'Oncet en boucle (au dessus de Barèges 65) Retour (Ski)</name>
    <desc><![CDATA[Col d\\\'Oncet en boucle (au dessus de Barèges 65) Retour (Ski)]]></desc>
  </metadata>
  <trk>
    <name><![CDATA[Col d\\\'Oncet en boucle (au dessus de Barèges 65) Retour (Ski)_1]]></name>
    <trkseg>
      <trkpt lat="42.93119" lon="0.1248">
        <ele>2533.8</ele>
        <time>2015-01-10T13:53:08Z</time>
      </trkpt>
      <trkpt lat="42.93115" lon="0.12471">
        <ele>2533.6756948199</ele>
        <time>2015-01-10T13:53:13Z</time>
      </trkpt>
      <trkpt lat="42.93115" lon="0.1247">
        <ele>2533.6756948199</ele>
        <time>2015-01-10T13:53:18Z</time>
      </trkpt>
      <trkpt lat="42.93109" lon="0.12458">
        <ele>2550.4743756305</ele>
        <time>2015-01-10T13:54:00Z</time>
      </trkpt>
      <trkpt lat="42.93109" lon="0.12458">
        <ele>2550.4743756305</ele>
        <time>2015-01-10T13:54:04Z</time>
      </trkpt>
      <trkpt lat="42.93118" lon="0.1246">
        <ele>2550.4743756305</ele>
        <time>2015-01-10T13:55:56Z</time>
      </trkpt>
      <trkpt lat="42.93121" lon="0.12465">
        <ele>2566.8762413415</ele>
        <time>2015-01-10T13:58:09Z</time>
      </trkpt>
      <trkpt lat="42.93121" lon="0.1247">
        <ele>2566.8762413415</ele>
        <time>2015-01-10T13:58:15Z</time>
      </trkpt>
      <trkpt lat="42.93114" lon="0.12472">
        <ele>2581.3381929801</ele>
        <time>2015-01-10T13:58:20Z</time>
      </trkpt>
      <trkpt lat="42.93111" lon="0.12476">
        <ele>2581.3381929801</ele>
        <time>2015-01-10T13:58:25Z</time>
      </trkpt>
      <trkpt lat="42.93106" lon="0.12479">
        <ele>2594.5294327116</ele>
        <time>2015-01-10T13:58:30Z</time>
      </trkpt>
      <trkpt lat="42.931" lon="0.12483">
        <ele>2594.5294327116</ele>
        <time>2015-01-10T13:58:35Z</time>
      </trkpt>
      <trkpt lat="42.93097" lon="0.1249">
        <ele>2606.3190810903</ele>
        <time>2015-01-10T13:58:39Z</time>
      </trkpt>
      <trkpt lat="42.93096" lon="0.12493">
        <ele>2606.3190810903</ele>
        <time>2015-01-10T13:58:44Z</time>
      </trkpt>
      <trkpt lat="42.93098" lon="0.12494">
        <ele>2606.3190810903</ele>
        <time>2015-01-10T13:58:50Z</time>
      </trkpt>
      <trkpt lat="42.931" lon="0.12507">
        <ele>2616.3235861699</ele>
        <time>2015-01-10T13:59:05Z</time>
      </trkpt>
      <trkpt lat="42.93102" lon="0.12514">
        <ele>2616.3235861699</ele>
        <time>2015-01-10T13:59:10Z</time>
      </trkpt>
      <trkpt lat="42.93095" lon="0.12516">
        <ele>2624.2945355676</ele>
        <time>2015-01-10T13:59:29Z</time>
      </trkpt>
      <trkpt lat="42.93094" lon="0.12514">
        <ele>2624.2945355676</ele>
        <time>2015-01-10T13:59:36Z</time>
      </trkpt>
      <trkpt lat="42.93088" lon="0.12515">
        <ele>2624.2945355676</ele>
        <time>2015-01-10T13:59:39Z</time>
      </trkpt>
      <trkpt lat="42.93089" lon="0.12517">
        <ele>2630.2324672683</ele>
        <time>2015-01-10T13:59:45Z</time>
      </trkpt>
      <trkpt lat="42.93095" lon="0.12526">
        <ele>2630.2324672683</ele>
        <time>2015-01-10T14:00:00Z</time>
      </trkpt>
      <trkpt lat="42.93098" lon="0.12531">
        <ele>2633.8366646643</ele>
        <time>2015-01-10T14:00:04Z</time>
      </trkpt>
      <trkpt lat="42.93099" lon="0.12534">
        <ele>2633.8366646643</ele>
        <time>2015-01-10T14:00:08Z</time>
      </trkpt>
      <trkpt lat="42.931" lon="0.12538">
        <ele>2633.8366646643</ele>
        <time>2015-01-10T14:00:15Z</time>
      </trkpt>
      <trkpt lat="42.93099" lon="0.12539">
        <ele>2633.8366646643</ele>
        <time>2015-01-10T14:00:19Z</time>
      </trkpt>
      <trkpt lat="42.93094" lon="0.12539">
        <ele>2635.346898033</ele>
        <time>2015-01-10T14:00:29Z</time>
      </trkpt>
      <trkpt lat="42.9309" lon="0.12536">
        <ele>2635.346898033</ele>
        <time>2015-01-10T14:00:35Z</time>
      </trkpt>
      <trkpt lat="42.93084" lon="0.12536">
        <ele>2635.1988240662</ele>
        <time>2015-01-10T14:00:40Z</time>
      </trkpt>
      <trkpt lat="42.93085" lon="0.12545">
        <ele>2635.1988240662</ele>
        <time>2015-01-10T14:00:44Z</time>
      </trkpt>
      <trkpt lat="42.9307" lon="0.12542">
        <ele>2633.4446470119</ele>
        <time>2015-01-10T14:00:49Z</time>
      </trkpt>
      <trkpt lat="42.93071" lon="0.12542">
        <ele>2633.4446470119</ele>
        <time>2015-01-10T14:00:55Z</time>
      </trkpt>
      <trkpt lat="42.93078" lon="0.12552">
        <ele>2630.4326426961</ele>
        <time>2015-01-10T14:01:05Z</time>
      </trkpt>
      <trkpt lat="42.93081" lon="0.12556">
        <ele>2630.4326426961</ele>
        <time>2015-01-10T14:01:09Z</time>
      </trkpt>
      <trkpt lat="42.93088" lon="0.12558">
        <ele>2626.3998868302</ele>
        <time>2015-01-10T14:01:15Z</time>
      </trkpt>
      <trkpt lat="42.93085" lon="0.12555">
        <ele>2626.3998868302</ele>
        <time>2015-01-10T14:01:20Z</time>
      </trkpt>
      <trkpt lat="42.93077" lon="0.12557">
        <ele>2621.8556512816</ele>
        <time>2015-01-10T14:01:24Z</time>
      </trkpt>
      <trkpt lat="42.9308" lon="0.12566">
        <ele>2621.8556512816</ele>
        <time>2015-01-10T14:01:30Z</time>
      </trkpt>
      <trkpt lat="42.93083" lon="0.12567">
        <ele>2616.6986301245</ele>
        <time>2015-01-10T14:01:35Z</time>
      </trkpt>
      <trkpt lat="42.93076" lon="0.12559">
        <ele>2616.6986301245</ele>
        <time>2015-01-10T14:02:00Z</time>
      </trkpt>
      <trkpt lat="42.93075" lon="0.12564">
        <ele>2611.3845065669</ele>
        <time>2015-01-10T14:02:04Z</time>
      </trkpt>
      <trkpt lat="42.93077" lon="0.12571">
        <ele>2611.3845065669</ele>
        <time>2015-01-10T14:02:09Z</time>
      </trkpt>
      <trkpt lat="42.93072" lon="0.12567">
        <ele>2606.0357533893</ele>
        <time>2015-01-10T14:02:15Z</time>
      </trkpt>
      <trkpt lat="42.93075" lon="0.1258">
        <ele>2600.7685786535</ele>
        <time>2015-01-10T14:02:20Z</time>
      </trkpt>
      <trkpt lat="42.93076" lon="0.12588">
        <ele>2600.7685786535</ele>
        <time>2015-01-10T14:02:24Z</time>
      </trkpt>
      <trkpt lat="42.93077" lon="0.126">
        <ele>2595.5874635941</ele>
        <time>2015-01-10T14:02:30Z</time>
      </trkpt>
      <trkpt lat="42.93077" lon="0.12606">
        <ele>2595.5874635941</ele>
        <time>2015-01-10T14:02:35Z</time>
      </trkpt>
      <trkpt lat="42.93073" lon="0.12599">
        <ele>2590.6627740644</ele>
        <time>2015-01-10T14:02:40Z</time>
      </trkpt>
      <trkpt lat="42.93068" lon="0.12594">
        <ele>2590.6627740644</ele>
        <time>2015-01-10T14:02:45Z</time>
      </trkpt>
      <trkpt lat="42.93063" lon="0.1259">
        <ele>2585.9946946313</ele>
        <time>2015-01-10T14:02:50Z</time>
      </trkpt>
      <trkpt lat="42.93061" lon="0.12601">
        <ele>2585.9946946313</ele>
        <time>2015-01-10T14:02:54Z</time>
      </trkpt>
      <trkpt lat="42.93068" lon="0.12615">
        <ele>2581.0708608308</ele>
        <time>2015-01-10T14:03:01Z</time>
      </trkpt>
      <trkpt lat="42.93068" lon="0.12616">
        <ele>2581.0708608308</ele>
        <time>2015-01-10T14:03:04Z</time>
      </trkpt>
      <trkpt lat="42.93066" lon="0.12631">
        <ele>2575.4199600134</ele>
        <time>2015-01-10T14:03:15Z</time>
      </trkpt>
      <trkpt lat="42.93066" lon="0.12642">
        <ele>2575.4199600134</ele>
        <time>2015-01-10T14:03:19Z</time>
      </trkpt>
      <trkpt lat="42.93066" lon="0.12647">
        <ele>2569.8005421149</ele>
        <time>2015-01-10T14:03:25Z</time>
      </trkpt>
      <trkpt lat="42.93061" lon="0.12632">
        <ele>2564.3811297186</ele>
        <time>2015-01-10T14:03:30Z</time>
      </trkpt>
      <trkpt lat="42.93059" lon="0.12624">
        <ele>2564.3811297186</ele>
        <time>2015-01-10T14:03:35Z</time>
      </trkpt>
      <trkpt lat="42.93056" lon="0.12619">
        <ele>2559.2248945368</ele>
        <time>2015-01-10T14:03:40Z</time>
      </trkpt>
      <trkpt lat="42.93045" lon="0.12614">
        <ele>2554.3461131936</ele>
        <time>2015-01-10T14:03:45Z</time>
      </trkpt>
      <trkpt lat="42.93027" lon="0.12608">
        <ele>2549.6612307979</ele>
        <time>2015-01-10T14:03:50Z</time>
      </trkpt>
      <trkpt lat="42.93013" lon="0.12614">
        <ele>2544.971001487</ele>
        <time>2015-01-10T14:03:55Z</time>
      </trkpt>
      <trkpt lat="42.93014" lon="0.12622">
        <ele>2544.971001487</ele>
        <time>2015-01-10T14:03:59Z</time>
      </trkpt>
      <trkpt lat="42.93001" lon="0.12626">
        <ele>2540.1777855777</ele>
        <time>2015-01-10T14:04:05Z</time>
      </trkpt>
      <trkpt lat="42.92989" lon="0.12632">
        <ele>2535.4848537742</ele>
        <time>2015-01-10T14:04:10Z</time>
      </trkpt>
      <trkpt lat="42.92987" lon="0.12644">
        <ele>2530.8755552568</ele>
        <time>2015-01-10T14:04:15Z</time>
      </trkpt>
      <trkpt lat="42.92982" lon="0.12659">
        <ele>2526.2677046639</ele>
        <time>2015-01-10T14:04:20Z</time>
      </trkpt>
      <trkpt lat="42.92996" lon="0.12662">
        <ele>2521.586909445</ele>
        <time>2015-01-10T14:04:25Z</time>
      </trkpt>
      <trkpt lat="42.93011" lon="0.12657">
        <ele>2515.8635869944</ele>
        <time>2015-01-10T14:04:30Z</time>
      </trkpt>
      <trkpt lat="42.93013" lon="0.12657">
        <ele>2515.8635869944</ele>
        <time>2015-01-10T14:04:35Z</time>
      </trkpt>
      <trkpt lat="42.93014" lon="0.12669">
        <ele>2508.636468994</ele>
        <time>2015-01-10T14:04:50Z</time>
      </trkpt>
      <trkpt lat="42.92993" lon="0.12669">
        <ele>2501.7276517692</ele>
        <time>2015-01-10T14:04:55Z</time>
      </trkpt>
      <trkpt lat="42.92983" lon="0.12673">
        <ele>2495.0440004016</ele>
        <time>2015-01-10T14:05:00Z</time>
      </trkpt>
      <trkpt lat="42.92992" lon="0.12673">
        <ele>2488.4686480993</ele>
        <time>2015-01-10T14:05:04Z</time>
      </trkpt>
      <trkpt lat="42.92997" lon="0.12688">
        <ele>2482.1383603477</ele>
        <time>2015-01-10T14:05:10Z</time>
      </trkpt>
      <trkpt lat="42.92985" lon="0.12694">
        <ele>2476.1670038876</ele>
        <time>2015-01-10T14:05:15Z</time>
      </trkpt>
      <trkpt lat="42.92988" lon="0.12705">
        <ele>2476.1670038876</ele>
        <time>2015-01-10T14:05:20Z</time>
      </trkpt>
      <trkpt lat="42.92997" lon="0.1272">
        <ele>2469.8633875601</ele>
        <time>2015-01-10T14:05:25Z</time>
      </trkpt>
      <trkpt lat="42.92987" lon="0.12723">
        <ele>2463.9095515268</ele>
        <time>2015-01-10T14:05:29Z</time>
      </trkpt>
      <trkpt lat="42.92979" lon="0.12746">
        <ele>2458.2304003185</ele>
        <time>2015-01-10T14:05:35Z</time>
      </trkpt>
      <trkpt lat="42.92969" lon="0.12762">
        <ele>2453.0065035182</ele>
        <time>2015-01-10T14:05:40Z</time>
      </trkpt>
      <trkpt lat="42.92969" lon="0.12769">
        <ele>2453.0065035182</ele>
        <time>2015-01-10T14:05:45Z</time>
      </trkpt>
      <trkpt lat="42.92969" lon="0.12768">
        <ele>2453.0065035182</ele>
        <time>2015-01-10T14:05:49Z</time>
      </trkpt>
      <trkpt lat="42.92978" lon="0.12771">
        <ele>2447.3375648532</ele>
        <time>2015-01-10T14:05:56Z</time>
      </trkpt>
      <trkpt lat="42.92988" lon="0.12774">
        <ele>2441.526509509</ele>
        <time>2015-01-10T14:06:05Z</time>
      </trkpt>
      <trkpt lat="42.92993" lon="0.12779">
        <ele>2441.526509509</ele>
        <time>2015-01-10T14:06:10Z</time>
      </trkpt>
      <trkpt lat="42.92989" lon="0.12789">
        <ele>2435.9911868697</ele>
        <time>2015-01-10T14:06:14Z</time>
      </trkpt>
      <trkpt lat="42.92972" lon="0.12794">
        <ele>2430.9362960226</ele>
        <time>2015-01-10T14:06:21Z</time>
      </trkpt>
      <trkpt lat="42.92982" lon="0.128">
        <ele>2425.8987028753</ele>
        <time>2015-01-10T14:06:24Z</time>
      </trkpt>
      <trkpt lat="42.92986" lon="0.12804">
        <ele>2425.8987028753</ele>
        <time>2015-01-10T14:06:29Z</time>
      </trkpt>
      <trkpt lat="42.92979" lon="0.12817">
        <ele>2420.3431978557</ele>
        <time>2015-01-10T14:06:36Z</time>
      </trkpt>
      <trkpt lat="42.92982" lon="0.12826">
        <ele>2420.3431978557</ele>
        <time>2015-01-10T14:06:39Z</time>
      </trkpt>
      <trkpt lat="42.92979" lon="0.12836">
        <ele>2414.3056505565</ele>
        <time>2015-01-10T14:06:45Z</time>
      </trkpt>
      <trkpt lat="42.92979" lon="0.12835">
        <ele>2414.3056505565</ele>
        <time>2015-01-10T14:06:49Z</time>
      </trkpt>
      <trkpt lat="42.92979" lon="0.12832">
        <ele>2414.3056505565</ele>
        <time>2015-01-10T14:06:54Z</time>
      </trkpt>
      <trkpt lat="42.92979" lon="0.12832">
        <ele>2414.3056505565</ele>
        <time>2015-01-10T14:07:00Z</time>
      </trkpt>
      <trkpt lat="42.92978" lon="0.12838">
        <ele>2414.3056505565</ele>
        <time>2015-01-10T14:07:05Z</time>
      </trkpt>
      <trkpt lat="42.92974" lon="0.12849">
        <ele>2406.8410133578</ele>
        <time>2015-01-10T14:07:09Z</time>
      </trkpt>
      <trkpt lat="42.9297" lon="0.12873">
        <ele>2399.8251656531</ele>
        <time>2015-01-10T14:07:15Z</time>
      </trkpt>
      <trkpt lat="42.92962" lon="0.12882">
        <ele>2393.461200869</ele>
        <time>2015-01-10T14:07:20Z</time>
      </trkpt>
      <trkpt lat="42.92958" lon="0.12908">
        <ele>2387.4521320836</ele>
        <time>2015-01-10T14:07:25Z</time>
      </trkpt>
      <trkpt lat="42.92949" lon="0.12931">
        <ele>2382.0773371015</ele>
        <time>2015-01-10T14:07:29Z</time>
      </trkpt>
      <trkpt lat="42.92938" lon="0.12975">
        <ele>2376.8286736387</ele>
        <time>2015-01-10T14:07:36Z</time>
      </trkpt>
      <trkpt lat="42.92935" lon="0.12992">
        <ele>2371.9398837137</ele>
        <time>2015-01-10T14:07:40Z</time>
      </trkpt>
      <trkpt lat="42.92932" lon="0.13007">
        <ele>2367.371052512</ele>
        <time>2015-01-10T14:07:45Z</time>
      </trkpt>
      <trkpt lat="42.92931" lon="0.13009">
        <ele>2367.371052512</ele>
        <time>2015-01-10T14:07:49Z</time>
      </trkpt>
      <trkpt lat="42.92937" lon="0.13019">
        <ele>2362.0915363652</ele>
        <time>2015-01-10T14:08:20Z</time>
      </trkpt>
      <trkpt lat="42.92938" lon="0.13025">
        <ele>2362.0915363652</ele>
        <time>2015-01-10T14:08:24Z</time>
      </trkpt>
      <trkpt lat="42.92942" lon="0.13018">
        <ele>2357.2878161509</ele>
        <time>2015-01-10T14:08:29Z</time>
      </trkpt>
      <trkpt lat="42.92948" lon="0.13018">
        <ele>2357.2878161509</ele>
        <time>2015-01-10T14:08:36Z</time>
      </trkpt>
      <trkpt lat="42.92959" lon="0.13029">
        <ele>2352.8951133569</ele>
        <time>2015-01-10T14:08:40Z</time>
      </trkpt>
      <trkpt lat="42.92974" lon="0.13033">
        <ele>2349.0293660109</ele>
        <time>2015-01-10T14:08:45Z</time>
      </trkpt>
      <trkpt lat="42.92983" lon="0.13031">
        <ele>2345.6192802684</ele>
        <time>2015-01-10T14:08:49Z</time>
      </trkpt>
      <trkpt lat="42.92981" lon="0.13042">
        <ele>2345.6192802684</ele>
        <time>2015-01-10T14:08:56Z</time>
      </trkpt>
      <trkpt lat="42.92968" lon="0.13055">
        <ele>2342.4224612213</ele>
        <time>2015-01-10T14:09:00Z</time>
      </trkpt>
      <trkpt lat="42.92958" lon="0.13066">
        <ele>2339.5081086732</ele>
        <time>2015-01-10T14:09:05Z</time>
      </trkpt>
      <trkpt lat="42.92953" lon="0.13075">
        <ele>2339.5081086732</ele>
        <time>2015-01-10T14:09:09Z</time>
      </trkpt>
      <trkpt lat="42.92947" lon="0.13096">
        <ele>2336.3699519499</ele>
        <time>2015-01-10T14:09:15Z</time>
      </trkpt>
      <trkpt lat="42.92941" lon="0.13106">
        <ele>2333.6207830836</ele>
        <time>2015-01-10T14:09:20Z</time>
      </trkpt>
      <trkpt lat="42.92934" lon="0.13113">
        <ele>2333.6207830836</ele>
        <time>2015-01-10T14:09:25Z</time>
      </trkpt>
      <trkpt lat="42.92931" lon="0.13114">
        <ele>2330.6888692405</ele>
        <time>2015-01-10T14:09:29Z</time>
      </trkpt>
      <trkpt lat="42.92924" lon="0.13121">
        <ele>2330.6888692405</ele>
        <time>2015-01-10T14:09:40Z</time>
      </trkpt>
      <trkpt lat="42.92918" lon="0.1313">
        <ele>2327.4257597633</ele>
        <time>2015-01-10T14:09:45Z</time>
      </trkpt>
      <trkpt lat="42.92912" lon="0.1314">
        <ele>2324.637967899</ele>
        <time>2015-01-10T14:09:49Z</time>
      </trkpt>
      <trkpt lat="42.92902" lon="0.13159">
        <ele>2322.1693671559</ele>
        <time>2015-01-10T14:09:55Z</time>
      </trkpt>
      <trkpt lat="42.92896" lon="0.13171">
        <ele>2320.0632717197</ele>
        <time>2015-01-10T14:10:00Z</time>
      </trkpt>
      <trkpt lat="42.92888" lon="0.1318">
        <ele>2318.0983840447</ele>
        <time>2015-01-10T14:10:05Z</time>
      </trkpt>
      <trkpt lat="42.92884" lon="0.13195">
        <ele>2316.3444799273</ele>
        <time>2015-01-10T14:10:08Z</time>
      </trkpt>
      <trkpt lat="42.92871" lon="0.13214">
        <ele>2314.5765449637</ele>
        <time>2015-01-10T14:10:16Z</time>
      </trkpt>
      <trkpt lat="42.92871" lon="0.13217">
        <ele>2314.5765449637</ele>
        <time>2015-01-10T14:10:20Z</time>
      </trkpt>
      <trkpt lat="42.9287" lon="0.13225">
        <ele>2314.5765449637</ele>
        <time>2015-01-10T14:10:34Z</time>
      </trkpt>
      <trkpt lat="42.92866" lon="0.13225">
        <ele>2312.6298309893</ele>
        <time>2015-01-10T14:10:41Z</time>
      </trkpt>
      <trkpt lat="42.92863" lon="0.13226">
        <ele>2312.6298309893</ele>
        <time>2015-01-10T14:10:45Z</time>
      </trkpt>
      <trkpt lat="42.92861" lon="0.13227">
        <ele>2312.6298309893</ele>
        <time>2015-01-10T14:10:49Z</time>
      </trkpt>
      <trkpt lat="42.92856" lon="0.13228">
        <ele>2310.5254959001</ele>
        <time>2015-01-10T14:10:56Z</time>
      </trkpt>
      <trkpt lat="42.92854" lon="0.13231">
        <ele>2310.5254959001</ele>
        <time>2015-01-10T14:10:59Z</time>
      </trkpt>
      <trkpt lat="42.92853" lon="0.13231">
        <ele>2310.5254959001</ele>
        <time>2015-01-10T14:11:05Z</time>
      </trkpt>
      <trkpt lat="42.92852" lon="0.13232">
        <ele>2310.5254959001</ele>
        <time>2015-01-10T14:11:09Z</time>
      </trkpt>
      <trkpt lat="42.92851" lon="0.13233">
        <ele>2310.5254959001</ele>
        <time>2015-01-10T14:11:15Z</time>
      </trkpt>
      <trkpt lat="42.92849" lon="0.13237">
        <ele>2308.1391762385</ele>
        <time>2015-01-10T14:11:20Z</time>
      </trkpt>
      <trkpt lat="42.92845" lon="0.13241">
        <ele>2308.1391762385</ele>
        <time>2015-01-10T14:11:25Z</time>
      </trkpt>
      <trkpt lat="42.92843" lon="0.13242">
        <ele>2308.1391762385</ele>
        <time>2015-01-10T14:11:29Z</time>
      </trkpt>
      <trkpt lat="42.92841" lon="0.13245">
        <ele>2305.9045185445</ele>
        <time>2015-01-10T14:11:34Z</time>
      </trkpt>
      <trkpt lat="42.9284" lon="0.13247">
        <ele>2305.9045185445</ele>
        <time>2015-01-10T14:11:39Z</time>
      </trkpt>
      <trkpt lat="42.92838" lon="0.13247">
        <ele>2305.9045185445</ele>
        <time>2015-01-10T14:11:45Z</time>
      </trkpt>
      <trkpt lat="42.92836" lon="0.1325">
        <ele>2305.9045185445</ele>
        <time>2015-01-10T14:11:49Z</time>
      </trkpt>
      <trkpt lat="42.92832" lon="0.13252">
        <ele>2303.8764611479</ele>
        <time>2015-01-10T14:11:55Z</time>
      </trkpt>
      <trkpt lat="42.92829" lon="0.13256">
        <ele>2303.8764611479</ele>
        <time>2015-01-10T14:12:00Z</time>
      </trkpt>
      <trkpt lat="42.92827" lon="0.13258">
        <ele>2303.8764611479</ele>
        <time>2015-01-10T14:12:04Z</time>
      </trkpt>
      <trkpt lat="42.92825" lon="0.13261">
        <ele>2302.1630437239</ele>
        <time>2015-01-10T14:12:09Z</time>
      </trkpt>
      <trkpt lat="42.92822" lon="0.13263">
        <ele>2302.1630437239</ele>
        <time>2015-01-10T14:12:15Z</time>
      </trkpt>
      <trkpt lat="42.9282" lon="0.13264">
        <ele>2302.1630437239</ele>
        <time>2015-01-10T14:12:20Z</time>
      </trkpt>
      <trkpt lat="42.92817" lon="0.13267">
        <ele>2300.6616960669</ele>
        <time>2015-01-10T14:12:25Z</time>
      </trkpt>
      <trkpt lat="42.92816" lon="0.13268">
        <ele>2300.6616960669</ele>
        <time>2015-01-10T14:12:29Z</time>
      </trkpt>
      <trkpt lat="42.92814" lon="0.13273">
        <ele>2300.6616960669</ele>
        <time>2015-01-10T14:12:35Z</time>
      </trkpt>
      <trkpt lat="42.92814" lon="0.13273">
        <ele>2300.6616960669</ele>
        <time>2015-01-10T14:12:40Z</time>
      </trkpt>
      <trkpt lat="42.92815" lon="0.1327">
        <ele>2300.6616960669</ele>
        <time>2015-01-10T14:16:24Z</time>
      </trkpt>
      <trkpt lat="42.9282" lon="0.13262">
        <ele>2297.9504962278</ele>
        <time>2015-01-10T14:16:29Z</time>
      </trkpt>
      <trkpt lat="42.9282" lon="0.13252">
        <ele>2297.9504962278</ele>
        <time>2015-01-10T14:16:35Z</time>
      </trkpt>
      <trkpt lat="42.92819" lon="0.13239">
        <ele>2295.6711203786</ele>
        <time>2015-01-10T14:16:40Z</time>
      </trkpt>
      <trkpt lat="42.92821" lon="0.13212">
        <ele>2293.858460481</ele>
        <time>2015-01-10T14:16:45Z</time>
      </trkpt>
      <trkpt lat="42.92821" lon="0.13199">
        <ele>2292.4427585853</ele>
        <time>2015-01-10T14:16:49Z</time>
      </trkpt>
      <trkpt lat="42.92814" lon="0.13158">
        <ele>2291.3872457703</ele>
        <time>2015-01-10T14:16:55Z</time>
      </trkpt>
      <trkpt lat="42.92804" lon="0.13144">
        <ele>2290.6281481052</ele>
        <time>2015-01-10T14:17:00Z</time>
      </trkpt>
      <trkpt lat="42.9279" lon="0.13118">
        <ele>2290.1633792302</ele>
        <time>2015-01-10T14:17:04Z</time>
      </trkpt>
      <trkpt lat="42.92779" lon="0.13105">
        <ele>2289.9326653883</ele>
        <time>2015-01-10T14:17:09Z</time>
      </trkpt>
      <trkpt lat="42.92755" lon="0.1309">
        <ele>2289.8941082316</ele>
        <time>2015-01-10T14:17:15Z</time>
      </trkpt>
      <trkpt lat="42.92747" lon="0.13084">
        <ele>2290.0085516909</ele>
        <time>2015-01-10T14:17:19Z</time>
      </trkpt>
      <trkpt lat="42.92721" lon="0.13063">
        <ele>2290.2106631228</ele>
        <time>2015-01-10T14:17:26Z</time>
      </trkpt>
      <trkpt lat="42.92713" lon="0.13056">
        <ele>2290.5120266126</ele>
        <time>2015-01-10T14:17:28Z</time>
      </trkpt>
      <trkpt lat="42.92695" lon="0.13038">
        <ele>2290.779115688</ele>
        <time>2015-01-10T14:17:35Z</time>
      </trkpt>
      <trkpt lat="42.92679" lon="0.13024">
        <ele>2291.0616837702</ele>
        <time>2015-01-10T14:17:40Z</time>
      </trkpt>
      <trkpt lat="42.92661" lon="0.1302">
        <ele>2291.3916499169</ele>
        <time>2015-01-10T14:17:44Z</time>
      </trkpt>
      <trkpt lat="42.92642" lon="0.13021">
        <ele>2291.6256611722</ele>
        <time>2015-01-10T14:17:50Z</time>
      </trkpt>
      <trkpt lat="42.92618" lon="0.13037">
        <ele>2291.7180327768</ele>
        <time>2015-01-10T14:17:55Z</time>
      </trkpt>
      <trkpt lat="42.92581" lon="0.13065">
        <ele>2291.6271551409</ele>
        <time>2015-01-10T14:18:00Z</time>
      </trkpt>
      <trkpt lat="42.92568" lon="0.13072">
        <ele>2291.1566611658</ele>
        <time>2015-01-10T14:18:05Z</time>
      </trkpt>
      <trkpt lat="42.92565" lon="0.13075">
        <ele>2291.1566611658</ele>
        <time>2015-01-10T14:18:09Z</time>
      </trkpt>
      <trkpt lat="42.92554" lon="0.13086">
        <ele>2290.1548720486</ele>
        <time>2015-01-10T14:18:15Z</time>
      </trkpt>
      <trkpt lat="42.92544" lon="0.13103">
        <ele>2289.0311100185</ele>
        <time>2015-01-10T14:18:20Z</time>
      </trkpt>
      <trkpt lat="42.92546" lon="0.13105">
        <ele>2289.0311100185</ele>
        <time>2015-01-10T14:18:24Z</time>
      </trkpt>
      <trkpt lat="42.92556" lon="0.13101">
        <ele>2284.9348717586</ele>
        <time>2015-01-10T14:19:40Z</time>
      </trkpt>
      <trkpt lat="42.92556" lon="0.13101">
        <ele>2284.9348717586</ele>
        <time>2015-01-10T14:19:45Z</time>
      </trkpt>
      <trkpt lat="42.92551" lon="0.13105">
        <ele>2284.9348717586</ele>
        <time>2015-01-10T14:20:40Z</time>
      </trkpt>
      <trkpt lat="42.92538" lon="0.13095">
        <ele>2281.002412879</ele>
        <time>2015-01-10T14:20:45Z</time>
      </trkpt>
      <trkpt lat="42.92523" lon="0.13087">
        <ele>2277.3989882111</ele>
        <time>2015-01-10T14:20:49Z</time>
      </trkpt>
      <trkpt lat="42.92505" lon="0.13084">
        <ele>2274.0751054342</ele>
        <time>2015-01-10T14:20:54Z</time>
      </trkpt>
      <trkpt lat="42.92485" lon="0.13097">
        <ele>2270.8833976861</ele>
        <time>2015-01-10T14:21:00Z</time>
      </trkpt>
      <trkpt lat="42.92457" lon="0.13106">
        <ele>2267.9034111996</ele>
        <time>2015-01-10T14:21:05Z</time>
      </trkpt>
      <trkpt lat="42.92433" lon="0.1311">
        <ele>2265.1218865725</ele>
        <time>2015-01-10T14:21:08Z</time>
      </trkpt>
      <trkpt lat="42.9241" lon="0.13119">
        <ele>2262.3963710309</ele>
        <time>2015-01-10T14:21:15Z</time>
      </trkpt>
      <trkpt lat="42.92396" lon="0.13125">
        <ele>2259.8255050984</ele>
        <time>2015-01-10T14:21:20Z</time>
      </trkpt>
      <trkpt lat="42.92383" lon="0.13142">
        <ele>2257.2408676392</ele>
        <time>2015-01-10T14:21:25Z</time>
      </trkpt>
      <trkpt lat="42.92365" lon="0.13169">
        <ele>2254.7171898313</ele>
        <time>2015-01-10T14:21:29Z</time>
      </trkpt>
      <trkpt lat="42.92335" lon="0.13218">
        <ele>2252.1074011306</ele>
        <time>2015-01-10T14:21:35Z</time>
      </trkpt>
      <trkpt lat="42.92324" lon="0.13232">
        <ele>2249.5638257238</ele>
        <time>2015-01-10T14:21:40Z</time>
      </trkpt>
      <trkpt lat="42.92312" lon="0.13243">
        <ele>2247.0544951055</ele>
        <time>2015-01-10T14:21:45Z</time>
      </trkpt>
      <trkpt lat="42.92305" lon="0.13249">
        <ele>2247.0544951055</ele>
        <time>2015-01-10T14:21:49Z</time>
      </trkpt>
      <trkpt lat="42.92294" lon="0.13252">
        <ele>2244.3767911883</ele>
        <time>2015-01-10T14:21:54Z</time>
      </trkpt>
      <trkpt lat="42.92284" lon="0.13251">
        <ele>2241.6173383559</ele>
        <time>2015-01-10T14:22:00Z</time>
      </trkpt>
      <trkpt lat="42.92264" lon="0.13244">
        <ele>2238.8710582155</ele>
        <time>2015-01-10T14:22:05Z</time>
      </trkpt>
      <trkpt lat="42.9225" lon="0.1324">
        <ele>2236.1105799752</ele>
        <time>2015-01-10T14:22:09Z</time>
      </trkpt>
      <trkpt lat="42.9224" lon="0.1324">
        <ele>2233.4547113659</ele>
        <time>2015-01-10T14:22:14Z</time>
      </trkpt>
      <trkpt lat="42.92214" lon="0.13232">
        <ele>2230.5808902686</ele>
        <time>2015-01-10T14:22:21Z</time>
      </trkpt>
      <trkpt lat="42.92201" lon="0.13226">
        <ele>2227.7817338512</ele>
        <time>2015-01-10T14:22:24Z</time>
      </trkpt>
      <trkpt lat="42.92193" lon="0.1322">
        <ele>2225.0399065102</ele>
        <time>2015-01-10T14:22:29Z</time>
      </trkpt>
      <trkpt lat="42.92168" lon="0.13217">
        <ele>2222.2815213155</ele>
        <time>2015-01-10T14:22:35Z</time>
      </trkpt>
      <trkpt lat="42.92156" lon="0.13211">
        <ele>2219.5534310481</ele>
        <time>2015-01-10T14:22:39Z</time>
      </trkpt>
      <trkpt lat="42.92137" lon="0.13193">
        <ele>2216.7404065447</ele>
        <time>2015-01-10T14:22:46Z</time>
      </trkpt>
      <trkpt lat="42.9213" lon="0.13187">
        <ele>2216.7404065447</ele>
        <time>2015-01-10T14:22:48Z</time>
      </trkpt>
      <trkpt lat="42.92124" lon="0.13178">
        <ele>2214.0096998038</ele>
        <time>2015-01-10T14:22:54Z</time>
      </trkpt>
      <trkpt lat="42.92107" lon="0.1317">
        <ele>2210.9539656952</ele>
        <time>2015-01-10T14:23:00Z</time>
      </trkpt>
      <trkpt lat="42.92104" lon="0.13184">
        <ele>2207.7586872089</ele>
        <time>2015-01-10T14:23:04Z</time>
      </trkpt>
      <trkpt lat="42.92094" lon="0.13181">
        <ele>2204.5672398939</ele>
        <time>2015-01-10T14:23:09Z</time>
      </trkpt>
      <trkpt lat="42.92082" lon="0.1319">
        <ele>2201.3538756476</ele>
        <time>2015-01-10T14:23:14Z</time>
      </trkpt>
      <trkpt lat="42.92038" lon="0.13198">
        <ele>2197.9073888496</ele>
        <time>2015-01-10T14:23:19Z</time>
      </trkpt>
      <trkpt lat="42.92007" lon="0.13194">
        <ele>2194.4794255935</ele>
        <time>2015-01-10T14:23:24Z</time>
      </trkpt>
      <trkpt lat="42.91988" lon="0.13194">
        <ele>2191.0147927808</ele>
        <time>2015-01-10T14:23:29Z</time>
      </trkpt>
      <trkpt lat="42.91971" lon="0.13193">
        <ele>2187.3903165601</ele>
        <time>2015-01-10T14:23:36Z</time>
      </trkpt>
      <trkpt lat="42.91962" lon="0.13184">
        <ele>2183.7804616554</ele>
        <time>2015-01-10T14:23:39Z</time>
      </trkpt>
      <trkpt lat="42.91944" lon="0.13184">
        <ele>2179.6838162743</ele>
        <time>2015-01-10T14:23:45Z</time>
      </trkpt>
      <trkpt lat="42.91936" lon="0.13174">
        <ele>2175.6170475831</ele>
        <time>2015-01-10T14:23:49Z</time>
      </trkpt>
      <trkpt lat="42.91912" lon="0.13163">
        <ele>2171.3525164409</ele>
        <time>2015-01-10T14:23:55Z</time>
      </trkpt>
      <trkpt lat="42.91889" lon="0.13158">
        <ele>2166.9247416607</ele>
        <time>2015-01-10T14:24:00Z</time>
      </trkpt>
      <trkpt lat="42.91874" lon="0.13157">
        <ele>2162.4092762545</ele>
        <time>2015-01-10T14:24:05Z</time>
      </trkpt>
      <trkpt lat="42.91862" lon="0.13161">
        <ele>2158.0924110149</ele>
        <time>2015-01-10T14:24:09Z</time>
      </trkpt>
      <trkpt lat="42.91854" lon="0.13171">
        <ele>2153.5037247415</ele>
        <time>2015-01-10T14:24:15Z</time>
      </trkpt>
      <trkpt lat="42.9185" lon="0.13175">
        <ele>2153.5037247415</ele>
        <time>2015-01-10T14:24:20Z</time>
      </trkpt>
      <trkpt lat="42.9185" lon="0.13176">
        <ele>2153.5037247415</ele>
        <time>2015-01-10T14:24:25Z</time>
      </trkpt>
      <trkpt lat="42.91842" lon="0.13181">
        <ele>2148.6114928944</ele>
        <time>2015-01-10T14:28:25Z</time>
      </trkpt>
      <trkpt lat="42.91827" lon="0.13187">
        <ele>2144.280531557</ele>
        <time>2015-01-10T14:28:29Z</time>
      </trkpt>
      <trkpt lat="42.91818" lon="0.13191">
        <ele>2140.4745293818</ele>
        <time>2015-01-10T14:28:35Z</time>
      </trkpt>
      <trkpt lat="42.91814" lon="0.13198">
        <ele>2140.4745293818</ele>
        <time>2015-01-10T14:28:40Z</time>
      </trkpt>
      <trkpt lat="42.91808" lon="0.13204">
        <ele>2137.042919805</ele>
        <time>2015-01-10T14:28:44Z</time>
      </trkpt>
      <trkpt lat="42.91802" lon="0.13201">
        <ele>2137.042919805</ele>
        <time>2015-01-10T14:28:50Z</time>
      </trkpt>
      <trkpt lat="42.91798" lon="0.13192">
        <ele>2133.9314584758</ele>
        <time>2015-01-10T14:28:55Z</time>
      </trkpt>
      <trkpt lat="42.91791" lon="0.13197">
        <ele>2133.9314584758</ele>
        <time>2015-01-10T14:29:00Z</time>
      </trkpt>
      <trkpt lat="42.91786" lon="0.13208">
        <ele>2131.0311903815</ele>
        <time>2015-01-10T14:29:05Z</time>
      </trkpt>
      <trkpt lat="42.9178" lon="0.13208">
        <ele>2131.0311903815</ele>
        <time>2015-01-10T14:29:09Z</time>
      </trkpt>
      <trkpt lat="42.91775" lon="0.13186">
        <ele>2128.3268965109</ele>
        <time>2015-01-10T14:29:15Z</time>
      </trkpt>
      <trkpt lat="42.91767" lon="0.13199">
        <ele>2125.8758487711</ele>
        <time>2015-01-10T14:29:20Z</time>
      </trkpt>
      <trkpt lat="42.91764" lon="0.13184">
        <ele>2123.7158674894</ele>
        <time>2015-01-10T14:29:24Z</time>
      </trkpt>
      <trkpt lat="42.91768" lon="0.13185">
        <ele>2123.7158674894</ele>
        <time>2015-01-10T14:29:29Z</time>
      </trkpt>
      <trkpt lat="42.9176" lon="0.13173">
        <ele>2121.5640199008</ele>
        <time>2015-01-10T14:29:35Z</time>
      </trkpt>
      <trkpt lat="42.91751" lon="0.13182">
        <ele>2119.63361283</ele>
        <time>2015-01-10T14:29:40Z</time>
      </trkpt>
      <trkpt lat="42.91747" lon="0.13173">
        <ele>2119.63361283</ele>
        <time>2015-01-10T14:29:45Z</time>
      </trkpt>
      <trkpt lat="42.91739" lon="0.13157">
        <ele>2117.6315971704</ele>
        <time>2015-01-10T14:29:49Z</time>
      </trkpt>
      <trkpt lat="42.91728" lon="0.13149">
        <ele>2115.690101276</ele>
        <time>2015-01-10T14:29:54Z</time>
      </trkpt>
      <trkpt lat="42.91701" lon="0.13136">
        <ele>2113.5854540792</ele>
        <time>2015-01-10T14:30:01Z</time>
      </trkpt>
      <trkpt lat="42.91697" lon="0.13131">
        <ele>2113.5854540792</ele>
        <time>2015-01-10T14:30:04Z</time>
      </trkpt>
      <trkpt lat="42.91697" lon="0.1313">
        <ele>2113.5854540792</ele>
        <time>2015-01-10T14:30:09Z</time>
      </trkpt>
      <trkpt lat="42.91695" lon="0.13132">
        <ele>2113.5854540792</ele>
        <time>2015-01-10T14:30:14Z</time>
      </trkpt>
      <trkpt lat="42.9169" lon="0.13124">
        <ele>2111.1828886825</ele>
        <time>2015-01-10T14:30:21Z</time>
      </trkpt>
      <trkpt lat="42.91682" lon="0.13121">
        <ele>2111.1828886825</ele>
        <time>2015-01-10T14:30:25Z</time>
      </trkpt>
      <trkpt lat="42.91667" lon="0.13114">
        <ele>2108.7186235075</ele>
        <time>2015-01-10T14:30:29Z</time>
      </trkpt>
      <trkpt lat="42.91658" lon="0.13107">
        <ele>2106.3972639189</ele>
        <time>2015-01-10T14:30:34Z</time>
      </trkpt>
      <trkpt lat="42.91656" lon="0.13106">
        <ele>2106.3972639189</ele>
        <time>2015-01-10T14:30:39Z</time>
      </trkpt>
      <trkpt lat="42.91655" lon="0.13103">
        <ele>2106.3972639189</ele>
        <time>2015-01-10T14:30:43Z</time>
      </trkpt>
      <trkpt lat="42.91653" lon="0.131">
        <ele>2106.3972639189</ele>
        <time>2015-01-10T14:30:50Z</time>
      </trkpt>
      <trkpt lat="42.91652" lon="0.131">
        <ele>2106.3972639189</ele>
        <time>2015-01-10T14:30:54Z</time>
      </trkpt>
      <trkpt lat="42.9165" lon="0.13101">
        <ele>2103.3415416667</ele>
        <time>2015-01-10T14:31:00Z</time>
      </trkpt>
      <trkpt lat="42.91647" lon="0.13097">
        <ele>2103.3415416667</ele>
        <time>2015-01-10T14:31:09Z</time>
      </trkpt>
      <trkpt lat="42.91643" lon="0.1309">
        <ele>2099.8647544429</ele>
        <time>2015-01-10T14:31:15Z</time>
      </trkpt>
      <trkpt lat="42.91636" lon="0.13078">
        <ele>2096.6618692904</ele>
        <time>2015-01-10T14:31:20Z</time>
      </trkpt>
      <trkpt lat="42.91632" lon="0.13078">
        <ele>2096.6618692904</ele>
        <time>2015-01-10T14:31:25Z</time>
      </trkpt>
      <trkpt lat="42.9163" lon="0.13079">
        <ele>2096.6618692904</ele>
        <time>2015-01-10T14:31:30Z</time>
      </trkpt>
      <trkpt lat="42.91628" lon="0.13078">
        <ele>2096.6618692904</ele>
        <time>2015-01-10T14:31:33Z</time>
      </trkpt>
      <trkpt lat="42.91622" lon="0.1308">
        <ele>2093.251953657</ele>
        <time>2015-01-10T14:31:40Z</time>
      </trkpt>
      <trkpt lat="42.91616" lon="0.13079">
        <ele>2093.251953657</ele>
        <time>2015-01-10T14:31:45Z</time>
      </trkpt>
      <trkpt lat="42.91614" lon="0.13078">
        <ele>2093.251953657</ele>
        <time>2015-01-10T14:31:50Z</time>
      </trkpt>
      <trkpt lat="42.91609" lon="0.13079">
        <ele>2089.7664214591</ele>
        <time>2015-01-10T14:32:00Z</time>
      </trkpt>
      <trkpt lat="42.91603" lon="0.13071">
        <ele>2089.7664214591</ele>
        <time>2015-01-10T14:32:04Z</time>
      </trkpt>
      <trkpt lat="42.91591" lon="0.13061">
        <ele>2086.5578117493</ele>
        <time>2015-01-10T14:32:10Z</time>
      </trkpt>
      <trkpt lat="42.91584" lon="0.13054">
        <ele>2086.5578117493</ele>
        <time>2015-01-10T14:32:14Z</time>
      </trkpt>
      <trkpt lat="42.91568" lon="0.13045">
        <ele>2083.5772875551</ele>
        <time>2015-01-10T14:32:21Z</time>
      </trkpt>
      <trkpt lat="42.91554" lon="0.13033">
        <ele>2080.9518816162</ele>
        <time>2015-01-10T14:32:24Z</time>
      </trkpt>
      <trkpt lat="42.91548" lon="0.13027">
        <ele>2080.9518816162</ele>
        <time>2015-01-10T14:32:30Z</time>
      </trkpt>
      <trkpt lat="42.91547" lon="0.13024">
        <ele>2078.3515440411</ele>
        <time>2015-01-10T14:32:34Z</time>
      </trkpt>
      <trkpt lat="42.91541" lon="0.1302">
        <ele>2078.3515440411</ele>
        <time>2015-01-10T14:32:40Z</time>
      </trkpt>
      <trkpt lat="42.91533" lon="0.13011">
        <ele>2075.6577381311</ele>
        <time>2015-01-10T14:32:45Z</time>
      </trkpt>
      <trkpt lat="42.91519" lon="0.13">
        <ele>2073.2652841637</ele>
        <time>2015-01-10T14:32:50Z</time>
      </trkpt>
      <trkpt lat="42.91509" lon="0.12992">
        <ele>2071.1068231253</ele>
        <time>2015-01-10T14:32:54Z</time>
      </trkpt>
      <trkpt lat="42.915" lon="0.12982">
        <ele>2068.8310738692</ele>
        <time>2015-01-10T14:33:01Z</time>
      </trkpt>
      <trkpt lat="42.91496" lon="0.12979">
        <ele>2068.8310738692</ele>
        <time>2015-01-10T14:33:05Z</time>
      </trkpt>
      <trkpt lat="42.91495" lon="0.12973">
        <ele>2068.8310738692</ele>
        <time>2015-01-10T14:33:10Z</time>
      </trkpt>
      <trkpt lat="42.91494" lon="0.1297">
        <ele>2066.0408469892</ele>
        <time>2015-01-10T14:33:14Z</time>
      </trkpt>
      <trkpt lat="42.91493" lon="0.1296">
        <ele>2066.0408469892</ele>
        <time>2015-01-10T14:33:21Z</time>
      </trkpt>
      <trkpt lat="42.91492" lon="0.12958">
        <ele>2066.0408469892</ele>
        <time>2015-01-10T14:33:25Z</time>
      </trkpt>
      <trkpt lat="42.91489" lon="0.12953">
        <ele>2062.585757062</ele>
        <time>2015-01-10T14:33:30Z</time>
      </trkpt>
      <trkpt lat="42.91487" lon="0.1295">
        <ele>2062.585757062</ele>
        <time>2015-01-10T14:33:34Z</time>
      </trkpt>
      <trkpt lat="42.91485" lon="0.12949">
        <ele>2062.585757062</ele>
        <time>2015-01-10T14:33:41Z</time>
      </trkpt>
      <trkpt lat="42.91477" lon="0.12947">
        <ele>2059.0489046285</ele>
        <time>2015-01-10T14:33:50Z</time>
      </trkpt>
      <trkpt lat="42.91473" lon="0.12944">
        <ele>2059.0489046285</ele>
        <time>2015-01-10T14:33:54Z</time>
      </trkpt>
      <trkpt lat="42.91467" lon="0.12946">
        <ele>2055.7114013222</ele>
        <time>2015-01-10T14:34:00Z</time>
      </trkpt>
      <trkpt lat="42.91469" lon="0.12959">
        <ele>2052.6458179114</ele>
        <time>2015-01-10T14:34:05Z</time>
      </trkpt>
      <trkpt lat="42.91473" lon="0.12958">
        <ele>2052.6458179114</ele>
        <time>2015-01-10T14:34:10Z</time>
      </trkpt>
      <trkpt lat="42.91471" lon="0.12955">
        <ele>2052.6458179114</ele>
        <time>2015-01-10T14:34:35Z</time>
      </trkpt>
      <trkpt lat="42.9147" lon="0.12954">
        <ele>2052.6458179114</ele>
        <time>2015-01-10T14:34:40Z</time>
      </trkpt>
      <trkpt lat="42.91467" lon="0.12958">
        <ele>2048.8522172116</ele>
        <time>2015-01-10T14:34:45Z</time>
      </trkpt>
      <trkpt lat="42.91469" lon="0.12972">
        <ele>2045.3804883963</ele>
        <time>2015-01-10T14:34:50Z</time>
      </trkpt>
      <trkpt lat="42.91472" lon="0.12987">
        <ele>2042.280184165</ele>
        <time>2015-01-10T14:34:54Z</time>
      </trkpt>
      <trkpt lat="42.91468" lon="0.1299">
        <ele>2042.280184165</ele>
        <time>2015-01-10T14:35:00Z</time>
      </trkpt>
      <trkpt lat="42.91468" lon="0.12987">
        <ele>2042.280184165</ele>
        <time>2015-01-10T14:35:05Z</time>
      </trkpt>
      <trkpt lat="42.9147" lon="0.12992">
        <ele>2038.8179737218</ele>
        <time>2015-01-10T14:35:50Z</time>
      </trkpt>
      <trkpt lat="42.91473" lon="0.12996">
        <ele>2038.8179737218</ele>
        <time>2015-01-10T14:35:54Z</time>
      </trkpt>
      <trkpt lat="42.91483" lon="0.13002">
        <ele>2035.7132875761</ele>
        <time>2015-01-10T14:36:00Z</time>
      </trkpt>
      <trkpt lat="42.91487" lon="0.13008">
        <ele>2035.7132875761</ele>
        <time>2015-01-10T14:36:05Z</time>
      </trkpt>
      <trkpt lat="42.91487" lon="0.13016">
        <ele>2032.954377647</ele>
        <time>2015-01-10T14:36:10Z</time>
      </trkpt>
      <trkpt lat="42.91482" lon="0.13018">
        <ele>2032.954377647</ele>
        <time>2015-01-10T14:36:14Z</time>
      </trkpt>
      <trkpt lat="42.91479" lon="0.13034">
        <ele>2030.4429190334</ele>
        <time>2015-01-10T14:36:21Z</time>
      </trkpt>
      <trkpt lat="42.91483" lon="0.13048">
        <ele>2028.2024039459</ele>
        <time>2015-01-10T14:36:24Z</time>
      </trkpt>
      <trkpt lat="42.91491" lon="0.13072">
        <ele>2026.0809091868</ele>
        <time>2015-01-10T14:36:30Z</time>
      </trkpt>
      <trkpt lat="42.91494" lon="0.13084">
        <ele>2026.0809091868</ele>
        <time>2015-01-10T14:36:34Z</time>
      </trkpt>
      <trkpt lat="42.91501" lon="0.13112">
        <ele>2023.8508806749</ele>
        <time>2015-01-10T14:36:41Z</time>
      </trkpt>
      <trkpt lat="42.91494" lon="0.13113">
        <ele>2023.8508806749</ele>
        <time>2015-01-10T14:36:45Z</time>
      </trkpt>
      <trkpt lat="42.91481" lon="0.13098">
        <ele>2021.7053122284</ele>
        <time>2015-01-10T14:36:49Z</time>
      </trkpt>
      <trkpt lat="42.91472" lon="0.13098">
        <ele>2019.7507503763</ele>
        <time>2015-01-10T14:36:54Z</time>
      </trkpt>
      <trkpt lat="42.9147" lon="0.13131">
        <ele>2017.6098404071</ele>
        <time>2015-01-10T14:37:00Z</time>
      </trkpt>
      <trkpt lat="42.91452" lon="0.13108">
        <ele>2015.3802497102</ele>
        <time>2015-01-10T14:37:10Z</time>
      </trkpt>
      <trkpt lat="42.9145" lon="0.13126">
        <ele>2013.1527590236</ele>
        <time>2015-01-10T14:37:14Z</time>
      </trkpt>
      <trkpt lat="42.91436" lon="0.13115">
        <ele>2010.9394622854</ele>
        <time>2015-01-10T14:37:21Z</time>
      </trkpt>
      <trkpt lat="42.91428" lon="0.13106">
        <ele>2008.9389169984</ele>
        <time>2015-01-10T14:37:24Z</time>
      </trkpt>
      <trkpt lat="42.91416" lon="0.13093">
        <ele>2006.9454482797</ele>
        <time>2015-01-10T14:37:30Z</time>
      </trkpt>
      <trkpt lat="42.91414" lon="0.13103">
        <ele>2006.9454482797</ele>
        <time>2015-01-10T14:37:34Z</time>
      </trkpt>
      <trkpt lat="42.91412" lon="0.1312">
        <ele>2004.4803012303</ele>
        <time>2015-01-10T14:37:40Z</time>
      </trkpt>
      <trkpt lat="42.91413" lon="0.13141">
        <ele>2001.9947585651</ele>
        <time>2015-01-10T14:37:44Z</time>
      </trkpt>
      <trkpt lat="42.91403" lon="0.13147">
        <ele>1999.4026765903</ele>
        <time>2015-01-10T14:37:50Z</time>
      </trkpt>
      <trkpt lat="42.91394" lon="0.1314">
        <ele>1996.9848731906</ele>
        <time>2015-01-10T14:37:54Z</time>
      </trkpt>
      <trkpt lat="42.91379" lon="0.13125">
        <ele>1994.3958368982</ele>
        <time>2015-01-10T14:38:01Z</time>
      </trkpt>
      <trkpt lat="42.9137" lon="0.13126">
        <ele>1991.8491832326</ele>
        <time>2015-01-10T14:38:04Z</time>
      </trkpt>
      <trkpt lat="42.91355" lon="0.13105">
        <ele>1989.2257245274</ele>
        <time>2015-01-10T14:38:10Z</time>
      </trkpt>
      <trkpt lat="42.91347" lon="0.13096">
        <ele>1986.8043953006</ele>
        <time>2015-01-10T14:38:14Z</time>
      </trkpt>
      <trkpt lat="42.91336" lon="0.13107">
        <ele>1984.1802103428</ele>
        <time>2015-01-10T14:38:20Z</time>
      </trkpt>
      <trkpt lat="42.91317" lon="0.13106">
        <ele>1981.4829399249</ele>
        <time>2015-01-10T14:38:24Z</time>
      </trkpt>
      <trkpt lat="42.91302" lon="0.13082">
        <ele>1978.7898382245</ele>
        <time>2015-01-10T14:38:30Z</time>
      </trkpt>
      <trkpt lat="42.91283" lon="0.13075">
        <ele>1975.927526077</ele>
        <time>2015-01-10T14:38:34Z</time>
      </trkpt>
      <trkpt lat="42.91251" lon="0.13074">
        <ele>1972.7358739384</ele>
        <time>2015-01-10T14:38:41Z</time>
      </trkpt>
      <trkpt lat="42.91229" lon="0.13064">
        <ele>1969.600684704</ele>
        <time>2015-01-10T14:38:44Z</time>
      </trkpt>
      <trkpt lat="42.91192" lon="0.13079">
        <ele>1965.9569786368</ele>
        <time>2015-01-10T14:38:51Z</time>
      </trkpt>
      <trkpt lat="42.91185" lon="0.13087">
        <ele>1965.9569786368</ele>
        <time>2015-01-10T14:38:54Z</time>
      </trkpt>
      <trkpt lat="42.91183" lon="0.13094">
        <ele>1961.9888708833</ele>
        <time>2015-01-10T14:39:00Z</time>
      </trkpt>
      <trkpt lat="42.9118" lon="0.13107">
        <ele>1958.040806619</ele>
        <time>2015-01-10T14:39:09Z</time>
      </trkpt>
      <trkpt lat="42.91179" lon="0.13108">
        <ele>1958.040806619</ele>
        <time>2015-01-10T14:39:14Z</time>
      </trkpt>
      <trkpt lat="42.91183" lon="0.13109">
        <ele>1958.040806619</ele>
        <time>2015-01-10T14:39:20Z</time>
      </trkpt>
      <trkpt lat="42.91188" lon="0.13117">
        <ele>1953.9418955338</ele>
        <time>2015-01-10T14:39:25Z</time>
      </trkpt>
      <trkpt lat="42.91193" lon="0.13138">
        <ele>1949.980959488</ele>
        <time>2015-01-10T14:39:30Z</time>
      </trkpt>
      <trkpt lat="42.91196" lon="0.1315">
        <ele>1949.980959488</ele>
        <time>2015-01-10T14:39:33Z</time>
      </trkpt>
      <trkpt lat="42.912" lon="0.1317">
        <ele>1945.9640413337</ele>
        <time>2015-01-10T14:39:40Z</time>
      </trkpt>
      <trkpt lat="42.91201" lon="0.13189">
        <ele>1942.1438936751</ele>
        <time>2015-01-10T14:39:45Z</time>
      </trkpt>
      <trkpt lat="42.91202" lon="0.1322">
        <ele>1938.5811800759</ele>
        <time>2015-01-10T14:39:50Z</time>
      </trkpt>
      <trkpt lat="42.912" lon="0.13246">
        <ele>1935.3313433066</ele>
        <time>2015-01-10T14:39:54Z</time>
      </trkpt>
      <trkpt lat="42.91197" lon="0.13281">
        <ele>1932.2286629374</ele>
        <time>2015-01-10T14:39:59Z</time>
      </trkpt>
      <trkpt lat="42.91193" lon="0.13344">
        <ele>1929.2776544494</ele>
        <time>2015-01-10T14:40:05Z</time>
      </trkpt>
      <trkpt lat="42.9119" lon="0.13371">
        <ele>1926.6405520702</ele>
        <time>2015-01-10T14:40:09Z</time>
      </trkpt>
      <trkpt lat="42.91171" lon="0.13404">
        <ele>1924.1352924454</ele>
        <time>2015-01-10T14:40:14Z</time>
      </trkpt>
      <trkpt lat="42.91147" lon="0.13407">
        <ele>1921.5927768339</ele>
        <time>2015-01-10T14:40:20Z</time>
      </trkpt>
      <trkpt lat="42.91137" lon="0.134">
        <ele>1919.1013869298</ele>
        <time>2015-01-10T14:40:24Z</time>
      </trkpt>
      <trkpt lat="42.91125" lon="0.13382">
        <ele>1916.6131387895</ele>
        <time>2015-01-10T14:40:30Z</time>
      </trkpt>
      <trkpt lat="42.91111" lon="0.13369">
        <ele>1914.2276513427</ele>
        <time>2015-01-10T14:40:33Z</time>
      </trkpt>
      <trkpt lat="42.91089" lon="0.13339">
        <ele>1911.8063402164</ele>
        <time>2015-01-10T14:40:40Z</time>
      </trkpt>
      <trkpt lat="42.91081" lon="0.13321">
        <ele>1909.5811659591</ele>
        <time>2015-01-10T14:40:45Z</time>
      </trkpt>
      <trkpt lat="42.91062" lon="0.133">
        <ele>1907.4926798248</ele>
        <time>2015-01-10T14:40:50Z</time>
      </trkpt>
      <trkpt lat="42.91043" lon="0.13283">
        <ele>1905.5862925591</ele>
        <time>2015-01-10T14:40:54Z</time>
      </trkpt>
      <trkpt lat="42.91019" lon="0.1329">
        <ele>1903.485650166</ele>
        <time>2015-01-10T14:41:01Z</time>
      </trkpt>
      <trkpt lat="42.91002" lon="0.13288">
        <ele>1901.5487461289</ele>
        <time>2015-01-10T14:41:04Z</time>
      </trkpt>
      <trkpt lat="42.90972" lon="0.13279">
        <ele>1899.3718668406</ele>
        <time>2015-01-10T14:41:11Z</time>
      </trkpt>
      <trkpt lat="42.90959" lon="0.13289">
        <ele>1897.0572177641</ele>
        <time>2015-01-10T14:41:14Z</time>
      </trkpt>
      <trkpt lat="42.90936" lon="0.13285">
        <ele>1894.5413868687</ele>
        <time>2015-01-10T14:41:20Z</time>
      </trkpt>
      <trkpt lat="42.90926" lon="0.13282">
        <ele>1891.8815022895</ele>
        <time>2015-01-10T14:41:25Z</time>
      </trkpt>
      <trkpt lat="42.9091" lon="0.13273">
        <ele>1889.0156399355</ele>
        <time>2015-01-10T14:41:29Z</time>
      </trkpt>
      <trkpt lat="42.90902" lon="0.13288">
        <ele>1885.6420410364</ele>
        <time>2015-01-10T14:41:34Z</time>
      </trkpt>
      <trkpt lat="42.9089" lon="0.13267">
        <ele>1882.1310625391</ele>
        <time>2015-01-10T14:41:41Z</time>
      </trkpt>
      <trkpt lat="42.90886" lon="0.13256">
        <ele>1878.7686153207</ele>
        <time>2015-01-10T14:41:44Z</time>
      </trkpt>
      <trkpt lat="42.90856" lon="0.13261">
        <ele>1874.882480512</ele>
        <time>2015-01-10T14:41:51Z</time>
      </trkpt>
      <trkpt lat="42.90846" lon="0.13265">
        <ele>1871.2059391426</ele>
        <time>2015-01-10T14:41:54Z</time>
      </trkpt>
      <trkpt lat="42.90819" lon="0.13249">
        <ele>1867.0343473155</ele>
        <time>2015-01-10T14:42:00Z</time>
      </trkpt>
      <trkpt lat="42.90799" lon="0.13245">
        <ele>1862.8114452838</ele>
        <time>2015-01-10T14:42:05Z</time>
      </trkpt>
      <trkpt lat="42.90779" lon="0.13234">
        <ele>1858.5161649511</ele>
        <time>2015-01-10T14:42:09Z</time>
      </trkpt>
      <trkpt lat="42.90757" lon="0.13243">
        <ele>1854.1147459577</ele>
        <time>2015-01-10T14:42:14Z</time>
      </trkpt>
      <trkpt lat="42.90741" lon="0.13224">
        <ele>1849.5329300429</ele>
        <time>2015-01-10T14:42:20Z</time>
      </trkpt>
      <trkpt lat="42.90728" lon="0.13221">
        <ele>1845.0338232682</ele>
        <time>2015-01-10T14:42:24Z</time>
      </trkpt>
      <trkpt lat="42.90703" lon="0.13205">
        <ele>1840.2556425441</ele>
        <time>2015-01-10T14:42:30Z</time>
      </trkpt>
      <trkpt lat="42.90691" lon="0.13199">
        <ele>1835.7573812069</ele>
        <time>2015-01-10T14:42:34Z</time>
      </trkpt>
      <trkpt lat="42.90691" lon="0.132">
        <ele>1835.7573812069</ele>
        <time>2015-01-10T14:42:40Z</time>
      </trkpt>
      <trkpt lat="42.90687" lon="0.13193">
        <ele>1835.7573812069</ele>
        <time>2015-01-10T14:42:45Z</time>
      </trkpt>
      <trkpt lat="42.90684" lon="0.13198">
        <ele>1830.3123563734</ele>
        <time>2015-01-10T14:42:49Z</time>
      </trkpt>
      <trkpt lat="42.90667" lon="0.13225">
        <ele>1824.1844365934</ele>
        <time>2015-01-10T14:42:54Z</time>
      </trkpt>
      <trkpt lat="42.90651" lon="0.13217">
        <ele>1818.1098930924</ele>
        <time>2015-01-10T14:43:00Z</time>
      </trkpt>
      <trkpt lat="42.90625" lon="0.132">
        <ele>1811.675393775</ele>
        <time>2015-01-10T14:43:05Z</time>
      </trkpt>
      <trkpt lat="42.90615" lon="0.13195">
        <ele>1805.5076186664</ele>
        <time>2015-01-10T14:43:10Z</time>
      </trkpt>
      <trkpt lat="42.90616" lon="0.13197">
        <ele>1805.5076186664</ele>
        <time>2015-01-10T14:43:13Z</time>
      </trkpt>
      <trkpt lat="42.90617" lon="0.13198">
        <ele>1805.5076186664</ele>
        <time>2015-01-10T14:43:21Z</time>
      </trkpt>
      <trkpt lat="42.9062" lon="0.13188">
        <ele>1798.8460744925</ele>
        <time>2015-01-10T14:43:29Z</time>
      </trkpt>
      <trkpt lat="42.90627" lon="0.13177">
        <ele>1792.846382364</ele>
        <time>2015-01-10T14:43:33Z</time>
      </trkpt>
      <trkpt lat="42.90633" lon="0.13168">
        <ele>1787.4387550202</ele>
        <time>2015-01-10T14:43:40Z</time>
      </trkpt>
      <trkpt lat="42.90643" lon="0.13154">
        <ele>1782.6575585133</ele>
        <time>2015-01-10T14:43:45Z</time>
      </trkpt>
      <trkpt lat="42.90649" lon="0.13144">
        <ele>1778.3309280825</ele>
        <time>2015-01-10T14:43:50Z</time>
      </trkpt>
      <trkpt lat="42.90655" lon="0.13135">
        <ele>1778.3309280825</ele>
        <time>2015-01-10T14:43:54Z</time>
      </trkpt>
      <trkpt lat="42.9066" lon="0.13119">
        <ele>1774.1108127623</ele>
        <time>2015-01-10T14:44:01Z</time>
      </trkpt>
      <trkpt lat="42.90662" lon="0.13108">
        <ele>1774.1108127623</ele>
        <time>2015-01-10T14:44:04Z</time>
      </trkpt>
      <trkpt lat="42.90667" lon="0.13096">
        <ele>1769.6454215032</ele>
        <time>2015-01-10T14:44:11Z</time>
      </trkpt>
      <trkpt lat="42.9067" lon="0.13089">
        <ele>1769.6454215032</ele>
        <time>2015-01-10T14:44:14Z</time>
      </trkpt>
      <trkpt lat="42.90673" lon="0.13077">
        <ele>1765.3875144395</ele>
        <time>2015-01-10T14:44:20Z</time>
      </trkpt>
      <trkpt lat="42.90677" lon="0.13059">
        <ele>1761.5684945725</ele>
        <time>2015-01-10T14:44:25Z</time>
      </trkpt>
      <trkpt lat="42.9068" lon="0.13047">
        <ele>1758.2572626385</ele>
        <time>2015-01-10T14:44:30Z</time>
      </trkpt>
      <trkpt lat="42.90686" lon="0.13032">
        <ele>1755.3575620449</ele>
        <time>2015-01-10T14:44:34Z</time>
      </trkpt>
      <trkpt lat="42.90691" lon="0.13013">
        <ele>1752.6924515577</ele>
        <time>2015-01-10T14:44:40Z</time>
      </trkpt>
      <trkpt lat="42.90695" lon="0.12993">
        <ele>1750.2989682948</ele>
        <time>2015-01-10T14:44:44Z</time>
      </trkpt>
      <trkpt lat="42.907" lon="0.1297">
        <ele>1748.1529240719</ele>
        <time>2015-01-10T14:44:50Z</time>
      </trkpt>
      <trkpt lat="42.90698" lon="0.12949">
        <ele>1746.1734909513</ele>
        <time>2015-01-10T14:44:53Z</time>
      </trkpt>
      <trkpt lat="42.90701" lon="0.12924">
        <ele>1744.3573094586</ele>
        <time>2015-01-10T14:45:00Z</time>
      </trkpt>
      <trkpt lat="42.90702" lon="0.12904">
        <ele>1742.7440060553</ele>
        <time>2015-01-10T14:45:04Z</time>
      </trkpt>
      <trkpt lat="42.90704" lon="0.12868">
        <ele>1741.2111896091</ele>
        <time>2015-01-10T14:45:10Z</time>
      </trkpt>
      <trkpt lat="42.90707" lon="0.12844">
        <ele>1739.8902286004</ele>
        <time>2015-01-10T14:45:14Z</time>
      </trkpt>
      <trkpt lat="42.90707" lon="0.12806">
        <ele>1738.6861063795</ele>
        <time>2015-01-10T14:45:20Z</time>
      </trkpt>
      <trkpt lat="42.90706" lon="0.12777">
        <ele>1737.6257937005</ele>
        <time>2015-01-10T14:45:25Z</time>
      </trkpt>
      <trkpt lat="42.90707" lon="0.12743">
        <ele>1736.6330647728</ele>
        <time>2015-01-10T14:45:30Z</time>
      </trkpt>
      <trkpt lat="42.9071" lon="0.12728">
        <ele>1735.8245333073</ele>
        <time>2015-01-10T14:45:34Z</time>
      </trkpt>
      <trkpt lat="42.90715" lon="0.12694">
        <ele>1734.7602103455</ele>
        <time>2015-01-10T14:45:41Z</time>
      </trkpt>
      <trkpt lat="42.90717" lon="0.12674">
        <ele>1733.6529431271</ele>
        <time>2015-01-10T14:45:45Z</time>
      </trkpt>
      <trkpt lat="42.90719" lon="0.1265">
        <ele>1732.4840308311</ele>
        <time>2015-01-10T14:45:50Z</time>
      </trkpt>
      <trkpt lat="42.90718" lon="0.1263">
        <ele>1731.2796990823</ele>
        <time>2015-01-10T14:45:54Z</time>
      </trkpt>
      <trkpt lat="42.90719" lon="0.12594">
        <ele>1729.8339250273</ele>
        <time>2015-01-10T14:46:00Z</time>
      </trkpt>
      <trkpt lat="42.90722" lon="0.1257">
        <ele>1727.4810938749</ele>
        <time>2015-01-10T14:46:05Z</time>
      </trkpt>
      <trkpt lat="42.90722" lon="0.12542">
        <ele>1724.7456757517</ele>
        <time>2015-01-10T14:46:10Z</time>
      </trkpt>
      <trkpt lat="42.90719" lon="0.12516">
        <ele>1721.8842747043</ele>
        <time>2015-01-10T14:46:14Z</time>
      </trkpt>
      <trkpt lat="42.90719" lon="0.12474">
        <ele>1718.6740034353</ele>
        <time>2015-01-10T14:46:21Z</time>
      </trkpt>
      <trkpt lat="42.90719" lon="0.12449">
        <ele>1715.5579801943</ele>
        <time>2015-01-10T14:46:25Z</time>
      </trkpt>
      <trkpt lat="42.9072" lon="0.12416">
        <ele>1712.3702075204</ele>
        <time>2015-01-10T14:46:30Z</time>
      </trkpt>
      <trkpt lat="42.90721" lon="0.12389">
        <ele>1709.1877963227</ele>
        <time>2015-01-10T14:46:34Z</time>
      </trkpt>
      <trkpt lat="42.90723" lon="0.12346">
        <ele>1705.6932028796</ele>
        <time>2015-01-10T14:46:40Z</time>
      </trkpt>
      <trkpt lat="42.90724" lon="0.12322">
        <ele>1702.3281679621</ele>
        <time>2015-01-10T14:46:45Z</time>
      </trkpt>
      <trkpt lat="42.90724" lon="0.12296">
        <ele>1698.9973350292</ele>
        <time>2015-01-10T14:46:50Z</time>
      </trkpt>
      <trkpt lat="42.90724" lon="0.12278">
        <ele>1695.7132297359</ele>
        <time>2015-01-10T14:46:54Z</time>
      </trkpt>
      <trkpt lat="42.90722" lon="0.12239">
        <ele>1692.2136010989</ele>
        <time>2015-01-10T14:47:01Z</time>
      </trkpt>
      <trkpt lat="42.90721" lon="0.12218">
        <ele>1688.8181778967</ele>
        <time>2015-01-10T14:47:05Z</time>
      </trkpt>
      <trkpt lat="42.90719" lon="0.12195">
        <ele>1685.5491665993</ele>
        <time>2015-01-10T14:47:09Z</time>
      </trkpt>
      <trkpt lat="42.90719" lon="0.12164">
        <ele>1682.3836149114</ele>
        <time>2015-01-10T14:47:14Z</time>
      </trkpt>
      <trkpt lat="42.90721" lon="0.12129">
        <ele>1679.2135530261</ele>
        <time>2015-01-10T14:47:20Z</time>
      </trkpt>
      <trkpt lat="42.90719" lon="0.121">
        <ele>1676.1119359282</ele>
        <time>2015-01-10T14:47:25Z</time>
      </trkpt>
      <trkpt lat="42.90721" lon="0.12067">
        <ele>1672.8723980052</ele>
        <time>2015-01-10T14:47:30Z</time>
      </trkpt>
      <trkpt lat="42.90722" lon="0.12049">
        <ele>1669.8373684745</ele>
        <time>2015-01-10T14:47:34Z</time>
      </trkpt>
      <trkpt lat="42.90726" lon="0.12005">
        <ele>1666.5886136074</ele>
        <time>2015-01-10T14:47:41Z</time>
      </trkpt>
      <trkpt lat="42.90728" lon="0.11982">
        <ele>1663.4165728824</ele>
        <time>2015-01-10T14:47:44Z</time>
      </trkpt>
      <trkpt lat="42.9073" lon="0.11956">
        <ele>1660.3019365181</ele>
        <time>2015-01-10T14:47:50Z</time>
      </trkpt>
      <trkpt lat="42.90732" lon="0.11937">
        <ele>1657.3131390597</ele>
        <time>2015-01-10T14:47:54Z</time>
      </trkpt>
      <trkpt lat="42.90735" lon="0.11913">
        <ele>1654.3547295719</ele>
        <time>2015-01-10T14:47:59Z</time>
      </trkpt>
      <trkpt lat="42.90739" lon="0.11877">
        <ele>1651.3093757497</ele>
        <time>2015-01-10T14:48:06Z</time>
      </trkpt>
      <trkpt lat="42.90742" lon="0.11858">
        <ele>1648.4000764099</ele>
        <time>2015-01-10T14:48:09Z</time>
      </trkpt>
      <trkpt lat="42.90743" lon="0.11841">
        <ele>1645.6601449791</ele>
        <time>2015-01-10T14:48:14Z</time>
      </trkpt>
      <trkpt lat="42.90747" lon="0.11805">
        <ele>1642.86058253</ele>
        <time>2015-01-10T14:48:21Z</time>
      </trkpt>
      <trkpt lat="42.90749" lon="0.11787">
        <ele>1640.2649562846</ele>
        <time>2015-01-10T14:48:24Z</time>
      </trkpt>
      <trkpt lat="42.90754" lon="0.11757">
        <ele>1637.6269322102</ele>
        <time>2015-01-10T14:48:30Z</time>
      </trkpt>
      <trkpt lat="42.90758" lon="0.11745">
        <ele>1635.2227913883</ele>
        <time>2015-01-10T14:48:34Z</time>
      </trkpt>
      <trkpt lat="42.90765" lon="0.11712">
        <ele>1632.9187765634</ele>
        <time>2015-01-10T14:48:39Z</time>
      </trkpt>
      <trkpt lat="42.90774" lon="0.11676">
        <ele>1630.6483356799</ele>
        <time>2015-01-10T14:48:45Z</time>
      </trkpt>
      <trkpt lat="42.90783" lon="0.11653">
        <ele>1628.5226638472</ele>
        <time>2015-01-10T14:48:49Z</time>
      </trkpt>
      <trkpt lat="42.90794" lon="0.11626">
        <ele>1626.4570600582</ele>
        <time>2015-01-10T14:48:55Z</time>
      </trkpt>
      <trkpt lat="42.90805" lon="0.11604">
        <ele>1624.5458373965</ele>
        <time>2015-01-10T14:48:59Z</time>
      </trkpt>
      <trkpt lat="42.90817" lon="0.11571">
        <ele>1622.6165791818</ele>
        <time>2015-01-10T14:49:04Z</time>
      </trkpt>
      <trkpt lat="42.90809" lon="0.11554">
        <ele>1620.8410771751</ele>
        <time>2015-01-10T14:49:10Z</time>
      </trkpt>
      <trkpt lat="42.90795" lon="0.11557">
        <ele>1619.2484138896</ele>
        <time>2015-01-10T14:49:13Z</time>
      </trkpt>
      <trkpt lat="42.90779" lon="0.11571">
        <ele>1617.5624363048</ele>
        <time>2015-01-10T14:49:20Z</time>
      </trkpt>
      <trkpt lat="42.9077" lon="0.11569">
        <ele>1615.9599254167</ele>
        <time>2015-01-10T14:49:25Z</time>
      </trkpt>
      <trkpt lat="42.90768" lon="0.1155">
        <ele>1614.2298106971</ele>
        <time>2015-01-10T14:49:29Z</time>
      </trkpt>
      <trkpt lat="42.9076" lon="0.1153">
        <ele>1612.5228141004</ele>
        <time>2015-01-10T14:49:34Z</time>
      </trkpt>
      <trkpt lat="42.90753" lon="0.11517">
        <ele>1610.935354212</ele>
        <time>2015-01-10T14:49:39Z</time>
      </trkpt>
      <trkpt lat="42.90751" lon="0.11502">
        <ele>1609.1962237565</ele>
        <time>2015-01-10T14:49:45Z</time>
      </trkpt>
      <trkpt lat="42.90747" lon="0.11477">
        <ele>1607.4869703634</ele>
        <time>2015-01-10T14:49:49Z</time>
      </trkpt>
      <trkpt lat="42.90746" lon="0.11436">
        <ele>1605.7019858205</ele>
        <time>2015-01-10T14:49:54Z</time>
      </trkpt>
      <trkpt lat="42.90741" lon="0.11404">
        <ele>1603.9454653177</ele>
        <time>2015-01-10T14:50:00Z</time>
      </trkpt>
      <trkpt lat="42.90736" lon="0.1137">
        <ele>1602.2563043267</ele>
        <time>2015-01-10T14:50:05Z</time>
      </trkpt>
      <trkpt lat="42.90734" lon="0.11336">
        <ele>1600.6127874575</ele>
        <time>2015-01-10T14:50:10Z</time>
      </trkpt>
      <trkpt lat="42.90734" lon="0.11304">
        <ele>1598.9082803967</ele>
        <time>2015-01-10T14:50:14Z</time>
      </trkpt>
      <trkpt lat="42.90733" lon="0.11269">
        <ele>1597.1595233916</ele>
        <time>2015-01-10T14:50:20Z</time>
      </trkpt>
      <trkpt lat="42.90734" lon="0.11248">
        <ele>1595.4398771715</ele>
        <time>2015-01-10T14:50:25Z</time>
      </trkpt>
      <trkpt lat="42.90733" lon="0.11218">
        <ele>1593.7452578203</ele>
        <time>2015-01-10T14:50:29Z</time>
      </trkpt>
      <trkpt lat="42.90726" lon="0.11185">
        <ele>1592.0718925936</ele>
        <time>2015-01-10T14:50:34Z</time>
      </trkpt>
      <trkpt lat="42.90717" lon="0.11155">
        <ele>1590.3586626978</ele>
        <time>2015-01-10T14:50:40Z</time>
      </trkpt>
      <trkpt lat="42.90711" lon="0.11132">
        <ele>1588.6788313206</ele>
        <time>2015-01-10T14:50:44Z</time>
      </trkpt>
      <trkpt lat="42.90704" lon="0.11097">
        <ele>1586.9705656235</ele>
        <time>2015-01-10T14:50:50Z</time>
      </trkpt>
      <trkpt lat="42.90698" lon="0.11074">
        <ele>1585.292022347</ele>
        <time>2015-01-10T14:50:53Z</time>
      </trkpt>
      <trkpt lat="42.90687" lon="0.11038">
        <ele>1583.5385578661</ele>
        <time>2015-01-10T14:50:58Z</time>
      </trkpt>
      <trkpt lat="42.90674" lon="0.10997">
        <ele>1581.4693901238</ele>
        <time>2015-01-10T14:51:05Z</time>
      </trkpt>
      <trkpt lat="42.90668" lon="0.10977">
        <ele>1579.4532391918</ele>
        <time>2015-01-10T14:51:10Z</time>
      </trkpt>
      <trkpt lat="42.90662" lon="0.1095">
        <ele>1577.4425600912</ele>
        <time>2015-01-10T14:51:14Z</time>
      </trkpt>
      <trkpt lat="42.90657" lon="0.10913">
        <ele>1575.3645287639</ele>
        <time>2015-01-10T14:51:19Z</time>
      </trkpt>
      <trkpt lat="42.90652" lon="0.10871">
        <ele>1573.2383879893</ele>
        <time>2015-01-10T14:51:25Z</time>
      </trkpt>
      <trkpt lat="42.90647" lon="0.1084">
        <ele>1570.9380477828</ele>
        <time>2015-01-10T14:51:30Z</time>
      </trkpt>
      <trkpt lat="42.90645" lon="0.10811">
        <ele>1568.5345658179</ele>
        <time>2015-01-10T14:51:35Z</time>
      </trkpt>
      <trkpt lat="42.90644" lon="0.10781">
        <ele>1566.0941156598</ele>
        <time>2015-01-10T14:51:40Z</time>
      </trkpt>
      <trkpt lat="42.90644" lon="0.10752">
        <ele>1563.6925651447</ele>
        <time>2015-01-10T14:51:45Z</time>
      </trkpt>
      <trkpt lat="42.90645" lon="0.10726">
        <ele>1561.2704341865</ele>
        <time>2015-01-10T14:51:50Z</time>
      </trkpt>
      <trkpt lat="42.90643" lon="0.107">
        <ele>1558.8447539775</ele>
        <time>2015-01-10T14:51:55Z</time>
      </trkpt>
      <trkpt lat="42.90639" lon="0.10678">
        <ele>1556.4601599309</ele>
        <time>2015-01-10T14:51:59Z</time>
      </trkpt>
      <trkpt lat="42.9063" lon="0.10649">
        <ele>1554.0426223995</ele>
        <time>2015-01-10T14:52:07Z</time>
      </trkpt>
      <trkpt lat="42.90627" lon="0.10628">
        <ele>1551.7254113893</ele>
        <time>2015-01-10T14:52:09Z</time>
      </trkpt>
      <trkpt lat="42.90626" lon="0.10587">
        <ele>1549.3146900846</ele>
        <time>2015-01-10T14:52:15Z</time>
      </trkpt>
      <trkpt lat="42.90631" lon="0.10564">
        <ele>1547.020228679</ele>
        <time>2015-01-10T14:52:19Z</time>
      </trkpt>
      <trkpt lat="42.90636" lon="0.10531">
        <ele>1544.7478413877</ele>
        <time>2015-01-10T14:52:25Z</time>
      </trkpt>
      <trkpt lat="42.90637" lon="0.10512">
        <ele>1542.6119544582</ele>
        <time>2015-01-10T14:52:30Z</time>
      </trkpt>
      <trkpt lat="42.90638" lon="0.10488">
        <ele>1540.5740919546</ele>
        <time>2015-01-10T14:52:34Z</time>
      </trkpt>
      <trkpt lat="42.9064" lon="0.10463">
        <ele>1538.6703816501</ele>
        <time>2015-01-10T14:52:39Z</time>
      </trkpt>
      <trkpt lat="42.90642" lon="0.10429">
        <ele>1536.7033396359</ele>
        <time>2015-01-10T14:52:46Z</time>
      </trkpt>
      <trkpt lat="42.90644" lon="0.10406">
        <ele>1534.8648527765</ele>
        <time>2015-01-10T14:52:50Z</time>
      </trkpt>
      <trkpt lat="42.90648" lon="0.1038">
        <ele>1533.0873605377</ele>
        <time>2015-01-10T14:52:55Z</time>
      </trkpt>
      <trkpt lat="42.90651" lon="0.10355">
        <ele>1531.3369160478</ele>
        <time>2015-01-10T14:52:59Z</time>
      </trkpt>
      <trkpt lat="42.90655" lon="0.10326">
        <ele>1529.5964026736</ele>
        <time>2015-01-10T14:53:05Z</time>
      </trkpt>
      <trkpt lat="42.90657" lon="0.10304">
        <ele>1527.9652256395</ele>
        <time>2015-01-10T14:53:10Z</time>
      </trkpt>
      <trkpt lat="42.90659" lon="0.10275">
        <ele>1526.3766646526</ele>
        <time>2015-01-10T14:53:14Z</time>
      </trkpt>
      <trkpt lat="42.9066" lon="0.10247">
        <ele>1524.7832004201</ele>
        <time>2015-01-10T14:53:19Z</time>
      </trkpt>
      <trkpt lat="42.90663" lon="0.10216">
        <ele>1523.1840622491</ele>
        <time>2015-01-10T14:53:25Z</time>
      </trkpt>
      <trkpt lat="42.90655" lon="0.10196">
        <ele>1521.6217986909</ele>
        <time>2015-01-10T14:53:30Z</time>
      </trkpt>
      <trkpt lat="42.90641" lon="0.10205">
        <ele>1519.8907558016</ele>
        <time>2015-01-10T14:53:35Z</time>
      </trkpt>
      <trkpt lat="42.90639" lon="0.10221">
        <ele>1518.0746887027</ele>
        <time>2015-01-10T14:53:39Z</time>
      </trkpt>
      <trkpt lat="42.90638" lon="0.10247">
        <ele>1516.0208783682</ele>
        <time>2015-01-10T14:53:45Z</time>
      </trkpt>
      <trkpt lat="42.90634" lon="0.1027">
        <ele>1513.8334976792</ele>
        <time>2015-01-10T14:53:50Z</time>
      </trkpt>
      <trkpt lat="42.90629" lon="0.10281">
        <ele>1511.6382797441</ele>
        <time>2015-01-10T14:53:55Z</time>
      </trkpt>
      <trkpt lat="42.90625" lon="0.10293">
        <ele>1509.4508789733</ele>
        <time>2015-01-10T14:53:59Z</time>
      </trkpt>
      <trkpt lat="42.90615" lon="0.10316">
        <ele>1507.1128548239</ele>
        <time>2015-01-10T14:54:06Z</time>
      </trkpt>
      <trkpt lat="42.90612" lon="0.10325">
        <ele>1507.1128548239</ele>
        <time>2015-01-10T14:54:09Z</time>
      </trkpt>
      <trkpt lat="42.90605" lon="0.10342">
        <ele>1504.5787128076</ele>
        <time>2015-01-10T14:54:14Z</time>
      </trkpt>
      <trkpt lat="42.906" lon="0.10355">
        <ele>1502.1815427113</ele>
        <time>2015-01-10T14:54:19Z</time>
      </trkpt>
      <trkpt lat="42.9059" lon="0.10376">
        <ele>1499.7684249011</ele>
        <time>2015-01-10T14:54:23Z</time>
      </trkpt>
      <trkpt lat="42.9058" lon="0.10398">
        <ele>1497.3994687467</ele>
        <time>2015-01-10T14:54:30Z</time>
      </trkpt>
      <trkpt lat="42.9057" lon="0.10417">
        <ele>1495.0870025789</ele>
        <time>2015-01-10T14:54:36Z</time>
      </trkpt>
      <trkpt lat="42.90564" lon="0.10428">
        <ele>1492.8999242652</ele>
        <time>2015-01-10T14:54:39Z</time>
      </trkpt>
      <trkpt lat="42.90549" lon="0.10447">
        <ele>1490.7864170548</ele>
        <time>2015-01-10T14:54:44Z</time>
      </trkpt>
      <trkpt lat="42.90541" lon="0.10456">
        <ele>1488.7991283359</ele>
        <time>2015-01-10T14:54:51Z</time>
      </trkpt>
      <trkpt lat="42.90536" lon="0.10453">
        <ele>1488.7991283359</ele>
        <time>2015-01-10T14:54:55Z</time>
      </trkpt>
      <trkpt lat="42.90537" lon="0.10443">
        <ele>1487.0585260504</ele>
        <time>2015-01-10T14:54:58Z</time>
      </trkpt>
      <trkpt lat="42.90544" lon="0.1043">
        <ele>1485.3728908969</ele>
        <time>2015-01-10T14:55:06Z</time>
      </trkpt>
      <trkpt lat="42.90543" lon="0.10426">
        <ele>1485.3728908969</ele>
        <time>2015-01-10T14:55:09Z</time>
      </trkpt>
      <trkpt lat="42.90542" lon="0.10425">
        <ele>1485.3728908969</ele>
        <time>2015-01-10T14:55:15Z</time>
      </trkpt>
      <trkpt lat="42.90547" lon="0.10413">
        <ele>1484.2993908306</ele>
        <time>2015-01-10T14:55:59Z</time>
      </trkpt>
      <trkpt lat="42.90543" lon="0.10407">
        <ele>1484.2993908306</ele>
        <time>2015-01-10T14:56:26Z</time>
      </trkpt>
      <trkpt lat="42.90544" lon="0.10407">
        <ele>1484.2993908306</ele>
        <time>2015-01-10T14:56:30Z</time>
      </trkpt>
      <trkpt lat="42.90541" lon="0.10419">
        <ele>1483.660809997</ele>
        <time>2015-01-10T14:58:59Z</time>
      </trkpt>
      <trkpt lat="42.90541" lon="0.10417">
        <ele>1483.660809997</ele>
        <time>2015-01-10T14:59:04Z</time>
      </trkpt>
      <trkpt lat="42.90539" lon="0.10413">
        <ele>1483.660809997</ele>
        <time>2015-01-10T15:02:00Z</time>
      </trkpt>
      <trkpt lat="42.9054" lon="0.10408">
        <ele>1482.5423551893</ele>
        <time>2015-01-10T15:02:04Z</time>
      </trkpt>
      <trkpt lat="42.90544" lon="0.10413">
        <ele>1482.5423551893</ele>
        <time>2015-01-10T15:02:50Z</time>
      </trkpt>
      <trkpt lat="42.90544" lon="0.10416">
        <ele>1482.5423551893</ele>
        <time>2015-01-10T15:02:54Z</time>
      </trkpt>
      <trkpt lat="42.90544" lon="0.1041">
        <ele>1481.9424134409</ele>
        <time>2015-01-10T15:03:03Z</time>
      </trkpt>
      <trkpt lat="42.90543" lon="0.10409">
        <ele>1481.9424134409</ele>
        <time>2015-01-10T15:03:10Z</time>
      </trkpt>
      <trkpt lat="42.90545" lon="0.10408">
        <ele>1481.9424134409</ele>
        <time>2015-01-10T15:03:34Z</time>
      </trkpt>
    </trkseg>
  </trk>
</gpx>